Time;durP1;ratioP1;P1;durP2;ratioP2;P2;SDS_P1;SDS_P2;PMS_P1;PMS_P2;Temp;Humidity;BMP_temperature;BMP_pressure;BME280_temperature;BME280_humidity;BME280_pressure;Samples;Min_cycle;Max_cycle;Signal;HPM_P1;HPM_P2
2023/08/04 00:01:03;;;;;;;10.50;3.40;;;15.60;99.90;;;;;;5012093;28;20716;-77
2023/08/04 00:03:28;;;;;;;10.97;3.10;;;15.70;99.90;;;;;;5013117;28;20565;-78
2023/08/04 00:05:54;;;;;;;13.57;3.10;;;15.60;99.90;;;;;;5009441;28;20614;-78
2023/08/04 00:08:19;;;;;;;10.13;3.10;;;15.60;99.90;;;;;;5010068;28;20704;-78
2023/08/04 00:10:45;;;;;;;8.33;3.30;;;15.60;99.90;;;;;;5010700;28;20200;-77
2023/08/04 00:13:10;;;;;;;11.77;3.17;;;15.60;99.90;;;;;;5013180;28;20495;-77
2023/08/04 00:15:36;;;;;;;13.53;3.97;;;15.70;99.90;;;;;;5011461;28;20652;-77
2023/08/04 00:18:03;;;;;;;16.30;3.10;;;15.60;99.90;;;;;;5009100;28;20216;-77
2023/08/04 00:20:29;;;;;;;10.60;3.20;;;15.70;99.90;;;;;;5010627;28;20216;-78
2023/08/04 00:22:54;;;;;;;8.10;3.10;;;15.60;99.90;;;;;;5012684;28;20644;-77
2023/08/04 00:25:20;;;;;;;8.67;2.97;;;15.70;99.90;;;;;;5011209;28;20269;-77
2023/08/04 00:27:45;;;;;;;9.43;3.13;;;15.70;99.90;;;;;;5011446;28;20188;-77
2023/08/04 00:30:11;;;;;;;13.23;3.53;;;15.70;99.90;;;;;;5011583;28;20639;-77
2023/08/04 00:32:36;;;;;;;15.97;3.40;;;15.60;99.90;;;;;;5011154;28;20291;-77
2023/08/04 00:35:05;;;;;;;7.40;3.43;;;15.70;99.90;;;;;;5011267;28;20196;-77
2023/08/04 00:37:32;;;;;;;11.90;3.50;;;15.70;99.90;;;;;;5010500;28;20199;-77
2023/08/04 00:39:57;;;;;;;9.40;3.23;;;15.70;99.90;;;;;;5010913;28;20187;-77
2023/08/04 00:42:23;;;;;;;17.23;4.40;;;15.70;99.90;;;;;;5012789;28;20181;-77
2023/08/04 00:44:48;;;;;;;13.57;4.33;;;15.70;99.90;;;;;;5010993;28;20181;-77
2023/08/04 00:47:14;;;;;;;14.77;4.70;;;15.70;99.90;;;;;;5012313;28;20189;-77
2023/08/04 00:49:41;;;;;;;10.37;4.00;;;15.70;99.90;;;;;;5012143;28;20199;-77
2023/08/04 00:52:08;;;;;;;13.87;3.90;;;15.70;99.90;;;;;;5011509;28;20605;-77
2023/08/04 00:54:34;;;;;;;8.17;3.63;;;15.70;99.90;;;;;;5010791;28;20637;-78
2023/08/04 00:57:01;;;;;;;9.20;3.20;;;15.70;99.90;;;;;;5010829;28;20185;-78
2023/08/04 00:59:26;;;;;;;8.93;3.17;;;15.70;99.90;;;;;;5012116;28;20173;-78
2023/08/04 01:01:52;;;;;;;10.40;3.20;;;15.70;99.90;;;;;;5012851;28;20296;-77
2023/08/04 01:04:19;;;;;;;12.50;3.37;;;15.70;99.90;;;;;;5015440;28;20188;-78
2023/08/04 01:06:51;;;;;;;8.23;3.50;;;15.60;99.90;;;;;;5006349;28;20189;-77
2023/08/04 01:09:46;;;;;;;12.53;3.03;;;15.60;99.90;;;;;;5014546;28;20197;-76
2023/08/04 01:12:22;;;;;;;9.83;3.10;;;15.60;99.90;;;;;;4995053;28;20548;-77
2023/08/04 01:14:53;;;;;;;10.50;3.53;;;15.60;99.90;;;;;;5008694;28;20176;-77
2023/08/04 01:17:23;;;;;;;14.20;3.30;;;15.60;99.90;;;;;;5013773;28;20188;-77
2023/08/04 01:19:49;;;;;;;11.50;2.90;;;15.50;99.90;;;;;;5009356;28;20675;-77
2023/08/04 01:22:15;;;;;;;11.53;3.03;;;15.60;99.90;;;;;;5015770;28;20170;-77
2023/08/04 01:24:40;;;;;;;15.30;3.63;;;15.60;99.90;;;;;;5011399;28;20186;-77
2023/08/04 01:27:12;;;;;;;17.37;3.63;;;15.60;99.90;;;;;;4998654;28;20319;-77
2023/08/04 01:29:37;;;;;;;15.50;3.30;;;15.50;99.90;;;;;;5008672;28;20240;-77
2023/08/04 01:32:03;;;;;;;14.40;3.80;;;15.60;99.90;;;;;;5013746;28;20205;-77
2023/08/04 01:34:29;;;;;;;14.30;3.77;;;15.60;99.90;;;;;;5012747;28;20327;-76
2023/08/04 01:36:55;;;;;;;16.90;3.13;;;15.50;99.90;;;;;;5017966;28;20614;-77
2023/08/04 01:39:20;;;;;;;11.17;3.50;;;15.50;99.90;;;;;;5016011;28;20616;-77
2023/08/04 01:41:46;;;;;;;16.13;4.10;;;15.50;99.90;;;;;;5014529;28;20239;-77
2023/08/04 01:44:11;;;;;;;11.67;4.17;;;15.50;99.90;;;;;;4996666;28;20248;-77
2023/08/04 01:46:37;;;;;;;10.53;3.87;;;15.50;99.90;;;;;;5002733;28;20185;-76
2023/08/04 01:49:02;;;;;;;14.83;4.67;;;15.40;99.90;;;;;;5012664;28;20209;-77
2023/08/04 01:51:28;;;;;;;15.80;4.43;;;15.50;99.90;;;;;;4997799;28;20196;-78
2023/08/04 01:53:53;;;;;;;14.70;4.50;;;15.40;99.90;;;;;;5014094;28;20185;-77
2023/08/04 01:56:19;;;;;;;17.43;4.60;;;15.40;99.90;;;;;;5013889;28;20188;-77
2023/08/04 01:58:44;;;;;;;13.53;4.50;;;15.40;99.90;;;;;;5012986;28;20181;-77
2023/08/04 02:01:10;;;;;;;10.20;3.60;;;15.40;99.90;;;;;;5014254;28;20204;-77
2023/08/04 02:03:36;;;;;;;15.60;5.80;;;15.40;99.90;;;;;;5013151;28;20710;-77
2023/08/04 02:06:02;;;;;;;12.37;4.53;;;15.40;99.90;;;;;;4999819;28;20304;-77
2023/08/04 02:08:28;;;;;;;12.87;4.90;;;15.40;99.90;;;;;;5007817;28;20556;-77
2023/08/04 02:10:54;;;;;;;10.97;5.10;;;15.40;99.90;;;;;;5013432;28;20196;-77
2023/08/04 02:13:19;;;;;;;12.50;5.73;;;15.40;99.90;;;;;;5012979;28;20188;-78
2023/08/04 02:15:45;;;;;;;15.10;5.53;;;15.40;99.90;;;;;;5013327;28;20190;-77
2023/08/04 02:18:10;;;;;;;13.83;5.83;;;15.40;99.90;;;;;;5013882;28;20288;-77
2023/08/04 02:20:36;;;;;;;12.93;5.27;;;15.40;99.90;;;;;;5013603;28;20274;-77
2023/08/04 02:23:01;;;;;;;10.13;5.07;;;15.40;99.90;;;;;;5011646;28;20185;-77
2023/08/04 02:25:27;;;;;;;19.63;5.60;;;15.40;99.90;;;;;;5013064;28;20185;-77
2023/08/04 02:27:52;;;;;;;14.73;5.30;;;15.40;99.90;;;;;;5013761;28;20614;-77
2023/08/04 02:30:18;;;;;;;8.97;4.80;;;15.40;99.90;;;;;;5013503;28;20218;-76
2023/08/04 02:32:43;;;;;;;11.93;3.93;;;15.40;99.90;;;;;;5013530;28;20185;-77
2023/08/04 02:35:09;;;;;;;14.77;5.23;;;15.40;99.90;;;;;;5002592;28;20188;-76
2023/08/04 02:37:34;;;;;;;16.47;5.60;;;15.40;99.90;;;;;;5012246;28;20173;-77
2023/08/04 02:40:00;;;;;;;13.63;4.30;;;15.30;99.90;;;;;;5014280;28;20706;-76
2023/08/04 02:42:25;;;;;;;16.97;4.80;;;15.30;99.90;;;;;;5013058;28;20688;-77
2023/08/04 02:44:54;;;;;;;10.40;4.27;;;15.30;99.90;;;;;;5013075;28;20226;-78
2023/08/04 02:47:20;;;;;;;10.03;4.07;;;15.30;99.90;;;;;;5014521;28;20180;-77
2023/08/04 02:49:46;;;;;;;11.00;3.87;;;15.30;99.90;;;;;;5012730;28;20200;-77
2023/08/04 02:52:14;;;;;;;10.70;4.10;;;15.30;99.90;;;;;;5013242;28;20188;-76
2023/08/04 02:54:40;;;;;;;10.37;4.43;;;15.30;99.90;;;;;;5012720;28;20645;-77
2023/08/04 02:57:06;;;;;;;15.80;4.60;;;15.20;99.90;;;;;;5014096;28;20188;-77
2023/08/04 02:59:31;;;;;;;14.23;4.10;;;15.20;99.90;;;;;;5014323;28;20284;-77
2023/08/04 03:01:57;;;;;;;7.60;3.83;;;15.20;99.90;;;;;;5013996;28;20231;-77
2023/08/04 03:04:22;;;;;;;10.50;4.17;;;15.20;99.90;;;;;;5011010;28;20181;-77
2023/08/04 03:06:48;;;;;;;16.77;4.77;;;15.20;99.90;;;;;;5011832;28;20599;-76
2023/08/04 03:09:14;;;;;;;11.00;3.87;;;15.20;99.90;;;;;;5013711;28;20276;-76
2023/08/04 03:11:39;;;;;;;9.43;3.80;;;15.20;99.90;;;;;;5012405;28;20541;-77
2023/08/04 03:14:05;;;;;;;15.43;3.83;;;15.20;99.90;;;;;;5013744;28;20200;-76
2023/08/04 03:16:30;;;;;;;13.00;4.60;;;15.20;99.90;;;;;;4996307;28;20613;-76
2023/08/04 03:18:56;;;;;;;9.77;4.23;;;15.10;99.90;;;;;;5009826;28;20549;-77
2023/08/04 03:21:21;;;;;;;14.33;4.50;;;15.10;99.90;;;;;;5013724;28;20717;-76
2023/08/04 03:23:47;;;;;;;16.07;4.87;;;15.20;99.90;;;;;;5013639;28;20567;-76
2023/08/04 03:26:12;;;;;;;18.97;4.83;;;15.00;99.90;;;;;;5011945;28;20181;-77
2023/08/04 03:28:38;;;;;;;8.57;4.00;;;15.20;99.90;;;;;;5007217;28;20200;-76
2023/08/04 03:31:03;;;;;;;15.23;4.83;;;15.10;99.90;;;;;;5012167;28;20204;-76
2023/08/04 03:33:29;;;;;;;8.67;4.67;;;15.10;99.90;;;;;;5013605;28;20169;-76
2023/08/04 03:35:55;;;;;;;9.90;4.60;;;15.10;99.90;;;;;;5011956;28;20224;-76
2023/08/04 03:38:20;;;;;;;11.57;4.17;;;15.10;99.90;;;;;;5001047;28;20190;-76
2023/08/04 03:40:46;;;;;;;14.67;4.90;;;15.10;99.90;;;;;;4997908;28;20204;-76
2023/08/04 03:43:11;;;;;;;11.60;4.30;;;15.10;99.90;;;;;;5012387;28;20258;-77
2023/08/04 03:45:37;;;;;;;13.00;4.80;;;15.10;99.90;;;;;;5011271;28;20567;-76
2023/08/04 03:48:02;;;;;;;16.37;4.77;;;15.10;99.90;;;;;;5013927;28;20175;-78
2023/08/04 03:50:28;;;;;;;8.97;4.10;;;15.10;99.90;;;;;;5019054;28;20205;-77
2023/08/04 03:52:53;;;;;;;13.03;3.97;;;15.10;99.90;;;;;;5023960;28;20185;-77
2023/08/04 03:55:19;;;;;;;13.27;5.13;;;15.10;99.90;;;;;;5019594;28;20197;-77
2023/08/04 03:57:45;;;;;;;10.37;3.80;;;15.10;99.90;;;;;;5010962;28;20656;-77
2023/08/04 04:00:10;;;;;;;12.43;4.13;;;15.20;99.90;;;;;;5009863;28;20232;-78
2023/08/04 04:02:36;;;;;;;5.97;3.83;;;15.10;99.90;;;;;;5011457;28;20199;-76
2023/08/04 04:05:02;;;;;;;8.47;3.77;;;15.10;99.90;;;;;;5008620;28;20665;-76
2023/08/04 04:07:28;;;;;;;10.63;4.10;;;15.10;99.90;;;;;;5002326;28;20184;-76
2023/08/04 04:09:53;;;;;;;10.57;4.00;;;15.10;99.90;;;;;;5011360;28;20211;-77
2023/08/04 04:12:19;;;;;;;10.17;4.50;;;15.10;99.90;;;;;;5013136;28;20173;-77
2023/08/04 04:14:44;;;;;;;10.50;3.70;;;15.00;99.90;;;;;;5011501;28;20185;-77
2023/08/04 04:17:10;;;;;;;16.20;4.07;;;15.00;99.90;;;;;;5012629;28;20169;-76
2023/08/04 04:19:36;;;;;;;7.23;4.37;;;15.00;99.90;;;;;;5012939;28;20608;-76
2023/08/04 04:22:01;;;;;;;8.30;4.13;;;15.00;99.90;;;;;;5010463;28;20208;-77
2023/08/04 04:24:27;;;;;;;12.87;4.73;;;15.00;99.90;;;;;;5008468;28;20714;-77
2023/08/04 04:26:52;;;;;;;12.17;4.10;;;15.00;99.90;;;;;;4993011;28;20178;-77
2023/08/04 04:29:18;;;;;;;14.23;4.87;;;15.00;99.90;;;;;;4992992;28;20300;-77
2023/08/04 04:31:43;;;;;;;16.93;4.77;;;14.90;99.90;;;;;;4995904;28;20200;-77
2023/08/04 04:34:09;;;;;;;11.80;4.40;;;14.90;99.90;;;;;;5010671;28;20196;-76
2023/08/04 04:36:35;;;;;;;16.97;4.60;;;14.90;99.90;;;;;;5008664;28;20552;-76
2023/08/04 04:39:01;;;;;;;8.63;4.97;;;14.90;99.90;;;;;;5012153;28;20185;-77
2023/08/04 04:41:27;;;;;;;16.57;5.13;;;15.00;99.90;;;;;;5012269;28;20197;-76
2023/08/04 04:43:53;;;;;;;10.40;4.23;;;14.90;99.90;;;;;;5012327;28;20177;-77
2023/08/04 04:46:26;;;;;;;11.00;4.23;;;15.00;99.90;;;;;;5012285;28;20302;-76
2023/08/04 04:52:28;;;;;;;9.17;4.20;;;15.00;99.90;;;;;;5012493;28;20248;-76
2023/08/04 04:54:54;;;;;;;24.60;5.57;;;15.00;99.90;;;;;;5012224;28;20188;-76
2023/08/04 04:57:21;;;;;;;12.53;5.10;;;14.90;99.90;;;;;;5012351;28;20599;-77
2023/08/04 04:59:46;;;;;;;9.20;4.77;;;15.00;99.90;;;;;;5012104;28;20173;-76
2023/08/04 05:02:12;;;;;;;8.23;4.53;;;15.00;99.90;;;;;;5012464;28;20596;-77
2023/08/04 05:04:37;;;;;;;8.20;4.40;;;15.00;99.90;;;;;;5012519;28;20169;-77
2023/08/04 05:07:03;;;;;;;5.43;4.47;;;15.00;99.90;;;;;;5010894;28;20177;-77
2023/08/04 05:09:29;;;;;;;13.30;4.47;;;15.10;99.90;;;;;;5012302;28;20212;-76
2023/08/04 05:11:54;;;;;;;9.53;4.57;;;15.10;99.90;;;;;;5012562;28;20193;-76
2023/08/04 05:14:20;;;;;;;11.53;4.93;;;15.10;99.90;;;;;;5012482;28;20600;-77
2023/08/04 05:16:45;;;;;;;9.90;4.47;;;15.10;99.90;;;;;;5012692;28;20248;-77
2023/08/04 05:19:11;;;;;;;12.87;4.77;;;15.10;99.90;;;;;;5012950;28;20176;-78
2023/08/04 05:21:36;;;;;;;14.30;4.83;;;15.20;99.90;;;;;;5013486;28;20271;-78
2023/08/04 05:24:02;;;;;;;9.93;4.53;;;15.20;99.90;;;;;;5011978;28;20204;-78
2023/08/04 05:26:28;;;;;;;10.83;4.70;;;15.20;99.90;;;;;;5013380;28;20286;-78
2023/08/04 05:28:53;;;;;;;7.70;4.13;;;15.20;99.90;;;;;;5013027;28;20799;-77
2023/08/04 05:31:19;;;;;;;11.57;5.47;;;15.20;99.90;;;;;;5012946;28;20260;-78
2023/08/04 05:33:44;;;;;;;10.97;4.80;;;15.30;99.90;;;;;;5013323;28;20325;-78
2023/08/04 05:36:10;;;;;;;9.13;5.23;;;15.30;99.90;;;;;;5011863;28;20657;-81
2023/08/04 05:38:35;;;;;;;9.87;4.80;;;15.40;99.90;;;;;;5014050;28;20184;-78
2023/08/04 05:41:01;;;;;;;11.60;4.60;;;15.40;99.90;;;;;;5011732;28;20224;-78
2023/08/04 05:43:27;;;;;;;9.70;4.87;;;15.40;99.90;;;;;;5013636;28;20708;-78
2023/08/04 05:45:53;;;;;;;10.27;4.13;;;15.40;99.90;;;;;;5013430;28;20546;-78
2023/08/04 05:48:19;;;;;;;8.73;4.43;;;15.40;99.90;;;;;;5014615;28;20558;-78
2023/08/04 05:50:45;;;;;;;10.70;4.93;;;15.50;99.90;;;;;;5015745;28;20196;-77
2023/08/04 05:53:10;;;;;;;14.20;5.00;;;15.50;99.90;;;;;;5017027;28;20177;-78
2023/08/04 05:55:36;;;;;;;8.13;4.73;;;15.60;99.90;;;;;;5017490;28;20169;-78
2023/08/04 05:58:02;;;;;;;15.63;5.93;;;15.60;99.90;;;;;;5017622;28;20173;-78
2023/08/04 06:00:29;;;;;;;10.40;5.43;;;15.60;99.90;;;;;;5017656;28;20247;-78
2023/08/04 06:02:55;;;;;;;16.27;6.30;;;15.60;99.90;;;;;;5018229;28;20592;-78
2023/08/04 06:05:21;;;;;;;20.07;6.17;;;15.70;99.90;;;;;;5016692;28;20227;-78
2023/08/04 06:07:49;;;;;;;11.07;6.20;;;15.70;99.90;;;;;;5021482;28;20560;-78
2023/08/04 06:10:16;;;;;;;14.70;5.70;;;15.60;99.90;;;;;;5028277;28;20236;-78
2023/08/04 06:12:42;;;;;;;16.60;6.20;;;15.80;99.90;;;;;;5022715;28;20196;-78
2023/08/04 06:15:08;;;;;;;18.10;6.10;;;15.80;99.90;;;;;;5015277;28;20253;-77
2023/08/04 06:17:33;;;;;;;18.40;6.20;;;15.80;99.90;;;;;;5014593;28;20185;-78
2023/08/04 06:19:59;;;;;;;11.53;5.80;;;15.80;99.90;;;;;;5014365;28;20208;-78
2023/08/04 06:22:24;;;;;;;16.63;5.50;;;15.90;99.90;;;;;;5016156;28;20181;-78
2023/08/04 06:24:50;;;;;;;24.50;4.93;;;15.90;99.90;;;;;;5015957;28;20181;-78
2023/08/04 06:27:16;;;;;;;18.57;5.57;;;15.90;99.90;;;;;;5015771;28;20680;-78
2023/08/04 06:29:41;;;;;;;14.63;5.77;;;16.00;99.90;;;;;;5014839;28;20205;-77
2023/08/04 06:32:07;;;;;;;9.43;5.03;;;16.00;99.90;;;;;;5014307;28;20610;-78
2023/08/04 06:34:33;;;;;;;11.90;5.23;;;16.00;99.90;;;;;;5014873;28;20266;-77
2023/08/04 06:36:58;;;;;;;13.90;5.97;;;16.00;99.90;;;;;;5015873;28;20571;-78
2023/08/04 06:39:24;;;;;;;17.20;5.37;;;16.00;99.90;;;;;;5015626;28;20653;-78
2023/08/04 06:41:49;;;;;;;16.37;6.00;;;16.00;99.90;;;;;;5015971;28;20196;-77
2023/08/04 06:44:15;;;;;;;15.83;5.93;;;16.00;99.90;;;;;;5014558;28;20235;-78
2023/08/04 06:46:41;;;;;;;16.17;6.27;;;16.10;99.90;;;;;;5015680;28;20188;-78
2023/08/04 06:49:06;;;;;;;16.73;6.33;;;16.10;99.90;;;;;;5016148;28;20208;-78
2023/08/04 06:51:32;;;;;;;20.83;6.50;;;16.20;99.90;;;;;;5015482;28;20212;-77
2023/08/04 06:53:57;;;;;;;17.70;6.53;;;16.10;99.90;;;;;;5016142;28;20184;-78
2023/08/04 06:56:23;;;;;;;18.90;7.27;;;16.20;99.90;;;;;;5014770;28;20181;-77
2023/08/04 06:58:48;;;;;;;19.67;6.47;;;16.20;99.90;;;;;;5014293;28;20184;-78
2023/08/04 07:01:14;;;;;;;21.00;6.63;;;16.20;99.90;;;;;;5014888;28;20200;-78
2023/08/04 07:03:40;;;;;;;16.83;6.93;;;16.30;99.90;;;;;;5015798;28;20181;-78
2023/08/04 07:06:05;;;;;;;17.17;5.50;;;16.30;99.90;;;;;;5014748;28;20551;-78
2023/08/04 07:08:31;;;;;;;18.93;6.20;;;16.40;99.90;;;;;;5014291;28;20200;-78
2023/08/04 07:10:56;;;;;;;11.43;4.73;;;16.20;99.90;;;;;;5013873;28;20207;-78
2023/08/04 07:13:22;;;;;;;12.43;4.40;;;16.30;99.90;;;;;;5015538;28;20184;-78
2023/08/04 07:15:55;;;;;;;17.57;4.67;;;16.30;99.90;;;;;;5015632;28;20173;-78
2023/08/04 07:18:21;;;;;;;22.70;6.40;;;16.30;99.90;;;;;;5015686;28;20185;-78
2023/08/04 07:20:46;;;;;;;21.83;7.60;;;16.50;99.90;;;;;;5015291;28;20196;-78
2023/08/04 07:23:12;;;;;;;15.13;6.70;;;16.50;99.90;;;;;;5015321;28;20181;-78
2023/08/04 07:25:37;;;;;;;13.90;5.10;;;16.60;99.90;;;;;;5015712;28;20203;-78
2023/08/04 07:28:03;;;;;;;16.30;4.60;;;16.50;99.90;;;;;;5014904;28;20356;-78
2023/08/04 07:30:29;;;;;;;11.80;5.70;;;16.60;99.90;;;;;;5014506;28;20212;-77
2023/08/04 07:32:55;;;;;;;17.10;5.10;;;16.60;99.90;;;;;;5014696;28;20252;-77
2023/08/04 07:35:21;;;;;;;15.43;4.87;;;16.60;99.90;;;;;;5014631;28;20220;-78
2023/08/04 07:37:46;;;;;;;11.20;4.67;;;16.70;99.90;;;;;;5014940;28;20185;-78
2023/08/04 07:40:13;;;;;;;13.83;5.03;;;16.70;99.90;;;;;;5013356;28;20246;-78
2023/08/04 07:42:38;;;;;;;11.13;5.83;;;16.80;99.90;;;;;;5015168;28;20169;-78
2023/08/04 07:45:04;;;;;;;18.00;5.33;;;16.80;99.90;;;;;;5012867;28;20180;-78
2023/08/04 07:47:30;;;;;;;15.43;4.73;;;16.80;99.90;;;;;;5012964;28;20184;-77
2023/08/04 07:49:56;;;;;;;15.67;5.63;;;16.90;99.90;;;;;;5012842;28;20200;-78
2023/08/04 07:52:21;;;;;;;14.27;4.47;;;16.90;99.90;;;;;;5014605;28;20196;-78
2023/08/04 07:54:47;;;;;;;14.53;5.13;;;16.90;99.90;;;;;;5014577;28;20252;-78
2023/08/04 07:57:12;;;;;;;17.67;5.23;;;17.10;99.90;;;;;;5014536;28;20196;-78
2023/08/04 07:59:38;;;;;;;13.20;4.13;;;17.00;99.90;;;;;;5013116;28;20188;-77
2023/08/04 08:02:03;;;;;;;16.10;5.17;;;17.10;99.90;;;;;;5014495;28;20591;-79
2023/08/04 08:04:29;;;;;;;13.63;4.33;;;17.20;99.90;;;;;;5013499;28;20661;-78
2023/08/04 08:06:54;;;;;;;12.03;4.57;;;17.30;99.90;;;;;;5014315;28;20180;-78
2023/08/04 08:09:20;;;;;;;11.03;4.27;;;17.30;99.90;;;;;;5014790;28;20185;-78
2023/08/04 08:11:45;;;;;;;8.80;4.10;;;17.30;99.90;;;;;;5012582;28;20288;-78
2023/08/04 08:14:11;;;;;;;9.50;4.00;;;17.30;99.90;;;;;;5014531;28;20180;-77
2023/08/04 08:16:36;;;;;;;9.27;3.53;;;17.30;99.90;;;;;;5012992;28;20179;-78
2023/08/04 08:19:03;;;;;;;11.43;4.13;;;17.40;99.90;;;;;;5014102;28;20200;-78
2023/08/04 08:21:30;;;;;;;9.70;4.07;;;17.50;99.90;;;;;;5012868;28;20197;-78
2023/08/04 08:23:56;;;;;;;9.10;4.00;;;17.50;99.90;;;;;;5011179;28;20181;-78
2023/08/04 08:26:21;;;;;;;14.33;4.53;;;17.50;99.90;;;;;;5017856;28;20562;-78
2023/08/04 08:28:47;;;;;;;11.70;3.40;;;17.60;99.90;;;;;;5024136;28;20515;-78
2023/08/04 08:31:12;;;;;;;15.47;4.03;;;17.60;99.90;;;;;;5021615;28;20184;-78
2023/08/04 08:33:38;;;;;;;12.73;4.00;;;17.70;99.90;;;;;;5011378;28;20683;-78
2023/08/04 08:36:05;;;;;;;14.80;3.40;;;17.70;99.90;;;;;;5012042;28;20193;-78
2023/08/04 08:38:31;;;;;;;8.27;3.10;;;17.80;99.90;;;;;;5013563;28;20204;-78
2023/08/04 08:40:57;;;;;;;9.33;3.07;;;17.80;99.90;;;;;;5013098;28;20216;-78
2023/08/04 08:43:22;;;;;;;11.63;3.37;;;17.90;99.90;;;;;;5013589;28;20311;-78
2023/08/04 08:45:50;;;;;;;11.30;3.50;;;17.90;99.90;;;;;;5014148;28;20180;-78
2023/08/04 08:48:16;;;;;;;8.27;3.00;;;17.90;99.90;;;;;;5012193;28;20177;-78
2023/08/04 08:50:43;;;;;;;6.90;2.80;;;18.00;99.90;;;;;;5013708;28;20189;-78
2023/08/04 08:53:16;;;;;;;9.53;3.23;;;18.00;99.90;;;;;;5013216;28;20161;-80
2023/08/04 08:55:42;;;;;;;6.60;2.90;;;18.10;99.90;;;;;;5014495;28;20260;-79
2023/08/04 08:58:09;;;;;;;5.40;2.87;;;18.00;99.90;;;;;;5014088;28;20193;-80
2023/08/04 09:00:35;;;;;;;6.00;2.93;;;18.10;99.90;;;;;;5012336;28;20193;-78
2023/08/04 09:03:03;;;;;;;4.17;2.60;;;18.00;99.90;;;;;;5013521;28;20187;-78
2023/08/04 09:05:31;;;;;;;6.63;2.77;;;18.00;99.90;;;;;;5012024;28;20173;-76
2023/08/04 09:07:57;;;;;;;7.10;2.63;;;18.00;99.90;;;;;;5013926;28;20168;-78
2023/08/04 09:10:22;;;;;;;10.30;2.77;;;18.00;99.90;;;;;;5013407;28;20201;-78
2023/08/04 09:12:51;;;;;;;11.67;3.90;;;17.90;99.90;;;;;;5013920;28;20538;-78
2023/08/04 09:15:17;;;;;;;7.20;3.03;;;17.90;99.90;;;;;;5013764;28;20165;-78
2023/08/04 09:17:44;;;;;;;6.30;2.60;;;17.90;99.90;;;;;;5012131;28;20169;-78
2023/08/04 09:20:26;;;;;;;6.43;2.87;;;17.90;99.90;;;;;;5013374;28;20192;-79
2023/08/04 09:22:51;;;;;;;6.07;2.57;;;18.00;99.90;;;;;;5013930;28;20168;-78
2023/08/04 09:25:17;;;;;;;5.43;2.77;;;18.10;99.90;;;;;;5017527;28;20177;-78
2023/08/04 09:27:43;;;;;;;6.23;2.80;;;18.20;99.90;;;;;;5017536;28;20542;-78
2023/08/04 09:30:10;;;;;;;10.20;3.23;;;18.30;99.90;;;;;;5015867;28;20304;-79
2023/08/04 09:32:46;;;;;;;6.93;3.40;;;18.40;99.90;;;;;;5017757;28;20687;-81
2023/08/04 09:35:12;;;;;;;8.50;3.77;;;18.50;99.90;;;;;;5017031;28;20326;-80
2023/08/04 09:37:39;;;;;;;7.30;3.20;;;18.50;99.90;;;;;;5017318;28;20181;-80
2023/08/04 09:40:20;;;;;;;5.00;2.73;;;18.50;99.90;;;;;;5017628;28;20201;-81
2023/08/04 09:42:47;;;;;;;6.80;2.90;;;18.70;99.90;;;;;;5016297;28;20169;-81
2023/08/04 09:45:17;;;;;;;7.07;3.10;;;18.80;99.90;;;;;;5016399;28;20181;-81
2023/08/04 09:47:51;;;;;;;6.33;2.63;;;18.70;99.90;;;;;;5017470;28;20625;-80
2023/08/04 09:50:18;;;;;;;6.37;3.27;;;18.80;99.90;;;;;;5015668;28;20209;-81
2023/08/04 09:52:44;;;;;;;8.57;3.30;;;18.90;99.90;;;;;;5016524;28;20161;-81
2023/08/04 09:55:10;;;;;;;9.23;4.23;;;18.90;99.90;;;;;;5014885;28;20209;-80
2023/08/04 09:57:39;;;;;;;8.07;3.83;;;19.00;99.90;;;;;;5017048;28;20514;-82
2023/08/04 10:00:08;;;;;;;10.20;4.10;;;19.00;99.90;;;;;;5015642;28;20240;-81
2023/08/04 10:02:34;;;;;;;7.30;2.77;;;19.10;99.90;;;;;;5016695;28;20189;-81
2023/08/04 10:05:02;;;;;;;5.77;2.93;;;19.10;1.00;;;;;;5015643;28;20219;-81
2023/08/04 10:07:30;;;;;;;6.67;3.20;;;19.20;99.90;;;;;;5016945;28;20224;-81
2023/08/04 10:09:55;;;;;;;6.67;2.80;;;19.30;99.90;;;;;;5015336;28;20698;-82
2023/08/04 10:12:22;;;;;;;4.20;2.67;;;19.40;1.00;;;;;;5016817;28;20256;-81
2023/08/04 10:14:48;;;;;;;7.63;2.83;;;19.30;1.00;;;;;;5015832;28;20260;-82
2023/08/04 10:17:13;;;;;;;3.50;2.23;;;19.50;1.00;;;;;;5015340;28;20263;-81
2023/08/04 10:19:39;;;;;;;4.40;2.40;;;19.70;1.00;;;;;;5017201;28;20168;-81
2023/08/04 10:22:08;;;;;;;5.90;3.00;;;19.70;99.90;;;;;;5016416;28;20197;-81
2023/08/04 10:24:35;;;;;;;9.60;3.27;;;19.70;1.00;;;;;;5014553;28;20576;-81
2023/08/04 10:27:21;;;;;;;6.43;2.93;;;19.60;99.90;;;;;;5015370;28;20173;-81
2023/08/04 10:30:02;;;;;;;4.03;2.43;;;19.60;1.00;;;;;;5016811;28;20620;-82
2023/08/04 10:32:38;;;;;;;5.73;2.77;;;19.50;1.00;;;;;;5016216;28;20165;-81
2023/08/04 10:35:25;;;;;;;6.07;2.40;;;19.60;1.00;;;;;;5015622;28;20199;-82
2023/08/04 10:37:55;;;;;;;7.67;2.80;;;19.50;1.00;;;;;;5015975;28;20185;-81
2023/08/04 10:40:32;;;;;;;7.97;3.20;;;19.50;99.90;;;;;;5018758;28;20192;-82
2023/08/04 10:43:05;;;;;;;5.80;2.80;;;19.60;99.90;;;;;;5023391;28;20176;-82
2023/08/04 10:46:02;;;;;;;7.43;3.60;;;19.70;1.00;;;;;;5032378;28;20181;-82
2023/08/04 10:48:28;;;;;;;8.67;2.83;;;19.80;1.00;;;;;;5019216;28;20250;-82
2023/08/04 10:50:54;;;;;;;6.20;3.00;;;20.00;1.00;;;;;;5014460;28;20598;-82
2023/08/04 10:53:20;;;;;;;6.60;2.80;;;20.00;22.20;;;;;;5014928;28;20169;-81
2023/08/04 10:55:59;;;;;;;5.70;3.10;;;19.80;99.90;;;;;;5014135;28;20532;-79
2023/08/04 10:58:26;;;;;;;5.93;2.80;;;19.90;1.00;;;;;;5015948;28;20153;-81
2023/08/04 11:00:56;;;;;;;7.63;3.30;;;19.90;39.50;;;;;;5016060;28;20224;-81
2023/08/04 11:03:27;;;;;;;10.23;3.50;;;20.00;99.90;;;;;;5016013;28;20224;-82
2023/08/04 11:05:53;;;;;;;8.10;3.20;;;20.00;99.90;;;;;;5014937;28;20185;-82
2023/08/04 11:08:20;;;;;;;4.97;2.80;;;20.00;99.90;;;;;;5015612;28;20592;-82
2023/08/04 11:10:47;;;;;;;6.87;2.97;;;20.10;1.00;;;;;;5015437;28;20599;-81
2023/08/04 11:13:15;;;;;;;5.60;2.60;;;20.00;40.80;;;;;;5014843;28;20208;-81
2023/08/04 11:15:44;;;;;;;7.80;3.00;;;20.00;99.90;;;;;;5013677;28;20276;-81
2023/08/04 11:18:19;;;;;;;5.97;2.77;;;19.80;1.00;;;;;;5016285;28;20168;-81
2023/08/04 11:20:45;;;;;;;6.93;3.07;;;19.80;1.00;;;;;;5014194;28;20188;-81
2023/08/04 11:23:11;;;;;;;4.80;2.67;;;19.80;99.90;;;;;;5014483;28;20184;-81
2023/08/04 11:25:40;;;;;;;6.67;3.10;;;19.80;1.00;;;;;;5014003;28;20640;-82
2023/08/04 11:28:07;;;;;;;6.60;2.83;;;19.70;1.00;;;;;;5013819;28;20176;-81
2023/08/04 11:30:36;;;;;;;6.93;2.83;;;19.80;99.90;;;;;;5015225;28;20189;-81
2023/08/04 11:33:03;;;;;;;5.53;3.10;;;19.90;1.00;;;;;;5014295;28;20176;-81
2023/08/04 11:35:32;;;;;;;6.63;2.87;;;19.80;99.90;;;;;;5012850;28;20208;-82
2023/08/04 11:37:58;;;;;;;6.03;3.13;;;19.90;1.00;;;;;;5015289;28;20239;-82
2023/08/04 11:40:26;;;;;;;5.50;2.80;;;20.00;1.00;;;;;;5013714;28;20681;-82
2023/08/04 11:42:51;;;;;;;4.77;2.93;;;20.00;99.90;;;;;;5015546;28;20712;-82
2023/08/04 11:45:18;;;;;;;6.43;3.50;;;20.00;1.00;;;;;;5012064;28;20212;-81
2023/08/04 11:47:45;;;;;;;9.10;3.63;;;20.10;1.00;;;;;;5013272;28;20193;-81
2023/08/04 11:50:10;;;;;;;9.70;4.53;;;20.20;17.90;;;;;;5014054;28;20629;-82
2023/08/04 11:52:39;;;;;;;10.93;6.40;;;20.20;1.00;;;;;;5014930;28;20235;-82
2023/08/04 11:55:06;;;;;;;7.87;5.20;;;20.30;99.90;;;;;;5013830;28;20184;-82
2023/08/04 11:57:32;;;;;;;6.20;3.40;;;20.20;1.00;;;;;;5013854;28;20203;-81
2023/08/04 11:59:57;;;;;;;4.77;3.10;;;20.20;1.00;;;;;;5013532;28;20718;-81
2023/08/04 12:02:24;;;;;;;6.10;3.23;;;20.10;1.00;;;;;;5015173;28;20260;-81
2023/08/04 12:05:07;;;;;;;6.13;2.63;;;20.10;99.90;;;;;;5013487;28;20695;-81
2023/08/04 12:07:32;;;;;;;4.40;2.40;;;20.00;99.90;;;;;;5015034;28;20177;-81
2023/08/04 12:09:58;;;;;;;7.90;2.33;;;20.00;99.90;;;;;;5014906;28;20196;-81
2023/08/04 12:12:40;;;;;;;3.60;2.27;;;20.10;99.90;;;;;;5014793;28;20184;-81
2023/08/04 12:15:06;;;;;;;3.53;2.17;;;20.10;99.90;;;;;;5015115;28;20557;-81
2023/08/04 12:17:39;;;;;;;3.53;1.70;;;20.20;1.00;;;;;;5015243;28;20688;-80
2023/08/04 12:20:13;;;;;;;3.07;1.97;;;20.30;81.40;;;;;;5013338;28;20246;-81
2023/08/04 12:22:40;;;;;;;3.87;1.97;;;20.40;99.90;;;;;;5013932;28;20188;-82
2023/08/04 12:25:06;;;;;;;3.70;1.90;;;20.50;99.90;;;;;;5014733;28;20176;-81
2023/08/04 12:27:32;;;;;;;2.97;1.73;;;20.60;1.00;;;;;;5015265;28;20239;-81
2023/08/04 12:29:58;;;;;;;4.77;1.80;;;20.60;99.90;;;;;;5013482;28;20204;-81
2023/08/04 12:32:24;;;;;;;3.73;1.80;;;20.60;1.00;;;;;;5015957;28;20298;-81
2023/08/04 12:34:50;;;;;;;6.27;2.27;;;20.50;1.00;;;;;;5015039;28;20185;-82
2023/08/04 12:37:15;;;;;;;8.10;2.90;;;20.60;99.90;;;;;;5014801;28;20180;-82
2023/08/04 12:39:43;;;;;;;4.50;2.17;;;20.60;99.90;;;;;;5014719;28;20267;-81
2023/08/04 12:42:09;;;;;;;5.50;1.80;;;20.60;1.00;;;;;;5015016;28;20176;-82
2023/08/04 12:44:34;;;;;;;4.27;1.93;;;20.70;62.30;;;;;;5015213;28;20231;-81